Time;durP1;ratioP1;P1;durP2;ratioP2;P2;SDS_P1;SDS_P2;PMS_P1;PMS_P2;Temp;Humidity;BMP_temperature;BMP_pressure;BME280_temperature;BME280_humidity;BME280_pressure;Samples;Min_cycle;Max_cycle;Signal;HPM_P1;HPM_P2
2022/10/24 00:00:42;;;;;;;;;;;19.60;75.90;;;;;;4494621;31;19966;-70
2022/10/24 00:03:08;;;;;;;;;;;19.60;75.80;;;;;;4494733;31;20443;-70
2022/10/24 00:05:34;;;;;;;;;;;19.60;75.90;;;;;;4494573;31;19969;-70
2022/10/24 00:07:59;;;;;;;;;;;19.60;75.80;;;;;;4494762;31;19966;-70
2022/10/24 00:10:25;;;;;;;;;;;19.60;75.80;;;;;;4494394;31;19961;-70
2022/10/24 00:12:52;;;;;;;;;;;19.60;75.80;;;;;;4494732;31;20043;-70
2022/10/24 00:15:18;;;;;;;;;;;19.60;75.80;;;;;;4494599;31;20004;-70
2022/10/24 00:17:44;;;;;;;;;;;19.60;75.70;;;;;;4494728;31;19977;-70
2022/10/24 00:20:10;;;;;;;;;;;19.60;75.80;;;;;;4494940;31;20126;-70
2022/10/24 00:22:35;;;;;;;;;;;19.60;75.70;;;;;;4494941;31;20146;-70
2022/10/24 00:25:01;;;;;;;;;;;19.60;75.70;;;;;;4494817;31;20415;-69
2022/10/24 00:27:26;;;;;;;;;;;19.60;75.70;;;;;;4494351;31;20322;-70
2022/10/24 00:29:52;;;;;;;;;;;19.60;75.70;;;;;;4494588;31;19977;-70
2022/10/24 00:32:18;;;;;;;;;;;19.60;75.70;;;;;;4494560;31;20099;-70
2022/10/24 00:34:43;;;;;;;;;;;19.60;75.70;;;;;;4494482;31;20030;-69
2022/10/24 00:37:11;;;;;;;;;;;19.60;75.70;;;;;;4494542;31;19985;-70
2022/10/24 00:39:36;;;;;;;;;;;19.60;75.60;;;;;;4494637;31;20009;-70
2022/10/24 00:42:03;;;;;;;;;;;19.60;75.70;;;;;;4494266;31;20086;-70
2022/10/24 00:44:30;;;;;;;;;;;19.60;75.60;;;;;;4494146;31;20032;-70
2022/10/24 00:46:58;;;;;;;;;;;19.60;75.70;;;;;;4494157;31;19973;-70
2022/10/24 00:49:28;;;;;;;;;;;19.60;75.70;;;;;;4494334;31;20338;-70
2022/10/24 00:51:56;;;;;;;;;;;19.60;75.70;;;;;;4494540;31;20391;-70
2022/10/24 00:54:21;;;;;;;;;;;19.50;75.60;;;;;;4494632;31;19982;-70
2022/10/24 00:57:07;;;;;;;;;;;19.50;75.50;;;;;;4479811;31;19974;-70
2022/10/24 00:59:35;;;;;;;;;;;19.60;75.50;;;;;;4494105;31;19992;-70
2022/10/24 01:02:01;;;;;;;;;;;19.50;75.50;;;;;;4493818;31;19977;-70
2022/10/24 01:04:27;;;;;;;;;;;19.60;75.60;;;;;;4494077;31;20001;-70
2022/10/24 01:06:52;;;;;;;;;;;19.50;75.50;;;;;;4494285;31;19985;-70
2022/10/24 01:09:26;;;;;;;;;;;19.50;75.50;;;;;;4493943;31;20488;-70
2022/10/24 01:12:21;;;;;;;;;;;19.50;75.50;;;;;;4494194;31;20059;-70
2022/10/24 01:15:00;;;;;;;;;;;19.50;75.50;;;;;;4455865;31;19994;-70
2022/10/24 01:17:36;;;;;;;;;;;19.50;75.50;;;;;;4494288;31;19977;-70
2022/10/24 01:20:04;;;;;;;;;;;19.50;75.50;;;;;;4493961;31;20072;-70
2022/10/24 01:22:49;;;;;;;;;;;19.50;75.50;;;;;;4493695;31;19990;-70
2022/10/24 01:25:21;;;;;;;;;;;19.50;75.50;;;;;;4493794;31;19978;-70
2022/10/24 01:27:53;;;;;;;;;;;19.50;75.50;;;;;;4493887;31;20138;-71
2022/10/24 01:30:19;;;;;;;;;;;19.50;75.50;;;;;;4493706;31;20062;-70
2022/10/24 01:32:44;;;;;;;;;;;19.50;75.50;;;;;;4493886;31;19982;-70
2022/10/24 01:35:34;;;;;;;;;;;19.50;75.50;;;;;;4493676;31;20385;-70
2022/10/24 01:38:11;;;;;;;;;;;19.50;75.50;;;;;;4490085;31;19985;-70
2022/10/24 01:40:49;;;;;;;;;;;19.40;75.40;;;;;;4493649;31;20020;-70
2022/10/24 01:43:17;;;;;;;;;;;19.50;75.50;;;;;;4493404;31;19977;-70
2022/10/24 01:45:45;;;;;;;;;;;19.40;75.30;;;;;;4493608;31;20058;-71
2022/10/24 01:48:13;;;;;;;;;;;19.50;75.40;;;;;;4493174;31;20048;-70
2022/10/24 01:50:39;;;;;;;;;;;19.50;75.40;;;;;;4493169;31;19977;-70
2022/10/24 01:53:06;;;;;;;;;;;19.50;75.40;;;;;;4493118;31;19981;-70
2022/10/24 01:55:32;;;;;;;;;;;19.40;75.40;;;;;;4493136;31;19978;-70
2022/10/24 01:57:57;;;;;;;;;;;19.40;75.30;;;;;;4493594;31;20058;-70
2022/10/24 02:00:24;;;;;;;;;;;19.50;75.40;;;;;;4492977;31;19992;-70
2022/10/24 02:02:56;;;;;;;;;;;19.40;75.40;;;;;;4492916;31;19973;-70
2022/10/24 02:05:27;;;;;;;;;;;19.40;75.40;;;;;;4493185;31;19986;-70
2022/10/24 02:07:55;;;;;;;;;;;19.40;75.40;;;;;;4492993;31;19992;-70
2022/10/24 02:10:33;;;;;;;;;;;19.40;75.40;;;;;;4493228;31;19985;-70
2022/10/24 02:13:00;;;;;;;;;;;19.40;75.40;;;;;;4493066;31;19974;-70
2022/10/24 02:15:28;;;;;;;;;;;19.40;75.40;;;;;;4493022;31;19977;-70
2022/10/24 02:17:54;;;;;;;;;;;19.40;75.30;;;;;;4492832;31;20036;-70
2022/10/24 02:20:40;;;;;;;;;;;19.40;75.40;;;;;;4492427;31;19978;-70
2022/10/24 02:23:11;;;;;;;;;;;19.40;75.40;;;;;;4492717;31;19989;-70
2022/10/24 02:25:40;;;;;;;;;;;19.40;75.40;;;;;;4493416;31;20350;-70
2022/10/24 02:28:08;;;;;;;;;;;19.40;75.30;;;;;;4492801;31;20056;-70
2022/10/24 02:30:37;;;;;;;;;;;19.40;75.40;;;;;;4492756;31;20001;-70
2022/10/24 02:33:03;;;;;;;;;;;19.40;75.30;;;;;;4492471;31;20025;-70
2022/10/24 02:35:29;;;;;;;;;;;19.40;75.40;;;;;;4492640;31;19980;-70
2022/10/24 02:38:04;;;;;;;;;;;19.40;75.30;;;;;;4492715;31;20054;-70
2022/10/24 02:40:30;;;;;;;;;;;19.40;75.30;;;;;;4492405;31;20114;-70
2022/10/24 02:42:57;;;;;;;;;;;19.40;75.30;;;;;;4492220;31;20123;-70
2022/10/24 02:45:24;;;;;;;;;;;19.40;75.30;;;;;;4493225;31;20318;-70
2022/10/24 02:47:53;;;;;;;;;;;19.40;75.30;;;;;;4492848;31;20465;-70
2022/10/24 02:50:19;;;;;;;;;;;19.30;75.20;;;;;;4492728;31;20388;-70
2022/10/24 02:52:45;;;;;;;;;;;19.40;75.30;;;;;;4492972;31;20046;-70
2022/10/24 02:55:10;;;;;;;;;;;19.30;75.20;;;;;;4492923;32;19981;-70
2022/10/24 02:57:36;;;;;;;;;;;19.30;75.20;;;;;;4492859;32;20350;-70
2022/10/24 03:00:03;;;;;;;;;;;19.40;75.30;;;;;;4492697;32;19984;-70
2022/10/24 03:02:29;;;;;;;;;;;19.40;75.20;;;;;;4492290;32;20407;-70
2022/10/24 03:04:55;;;;;;;;;;;19.30;75.20;;;;;;4492533;32;19976;-70
2022/10/24 03:07:20;;;;;;;;;;;19.30;75.10;;;;;;4492648;32;19973;-70
2022/10/24 03:09:46;;;;;;;;;;;19.30;75.20;;;;;;4492598;32;20063;-70
2022/10/24 03:12:15;;;;;;;;;;;19.30;75.20;;;;;;4492229;32;20039;-70
2022/10/24 03:14:41;;;;;;;;;;;19.30;75.20;;;;;;4492254;32;19977;-70
2022/10/24 03:17:07;;;;;;;;;;;19.30;75.10;;;;;;4492405;32;20182;-70
2022/10/24 03:19:32;;;;;;;;;;;19.30;75.10;;;;;;4492239;32;19958;-70
2022/10/24 03:21:58;;;;;;;;;;;19.30;75.20;;;;;;4492102;32;19961;-70
2022/10/24 03:24:24;;;;;;;;;;;19.30;75.10;;;;;;4478217;32;19961;-71
2022/10/24 03:26:51;;;;;;;;;;;19.30;75.10;;;;;;4492537;32;20004;-70
2022/10/24 03:29:17;;;;;;;;;;;19.30;75.10;;;;;;4492225;32;20024;-70
2022/10/24 03:31:43;;;;;;;;;;;19.30;75.10;;;;;;4492458;31;19988;-70
2022/10/24 03:34:08;;;;;;;;;;;19.30;75.10;;;;;;4495371;31;19969;-70
2022/10/24 03:36:34;;;;;;;;;;;19.30;75.10;;;;;;4495017;31;19962;-70
2022/10/24 03:39:00;;;;;;;;;;;19.30;75.10;;;;;;4495063;31;20387;-70
2022/10/24 03:41:25;;;;;;;;;;;19.30;75.10;;;;;;4494922;31;19977;-70
2022/10/24 03:43:51;;;;;;;;;;;19.30;75.10;;;;;;4494845;31;19984;-70
2022/10/24 03:46:17;;;;;;;;;;;19.30;75.10;;;;;;4495259;31;20016;-70
2022/10/24 03:48:42;;;;;;;;;;;19.30;75.00;;;;;;4494954;31;19973;-70
2022/10/24 03:51:08;;;;;;;;;;;19.30;75.10;;;;;;4495200;31;19965;-70
2022/10/24 03:53:34;;;;;;;;;;;19.30;75.00;;;;;;4494988;31;19981;-70
2022/10/24 03:56:00;;;;;;;;;;;19.30;75.10;;;;;;4495197;31;19962;-68
2022/10/24 03:58:25;;;;;;;;;;;19.30;75.10;;;;;;4494810;31;20145;-70
2022/10/24 04:00:51;;;;;;;;;;;19.20;75.10;;;;;;4495157;31;19965;-70
2022/10/24 04:03:18;;;;;;;;;;;19.30;75.10;;;;;;4494700;31;19989;-70
2022/10/24 04:05:44;;;;;;;;;;;19.20;75.00;;;;;;4495053;31;19961;-70
2022/10/24 04:08:09;;;;;;;;;;;19.30;75.10;;;;;;4495024;31;20091;-70
2022/10/24 04:10:35;;;;;;;;;;;19.30;75.10;;;;;;4494995;31;19961;-69
2022/10/24 04:13:01;;;;;;;;;;;19.20;75.00;;;;;;4494855;31;19970;-70
2022/10/24 04:15:26;;;;;;;;;;;19.30;75.10;;;;;;4494548;31;20008;-70
2022/10/24 04:17:52;;;;;;;;;;;19.20;75.00;;;;;;4494655;31;19970;-70
2022/10/24 04:20:19;;;;;;;;;;;19.30;75.00;;;;;;4494875;31;20111;-70
2022/10/24 04:22:45;;;;;;;;;;;19.20;75.00;;;;;;4494726;31;19970;-70
2022/10/24 04:25:11;;;;;;;;;;;19.30;75.00;;;;;;4494743;31;19985;-70
2022/10/24 04:27:39;;;;;;;;;;;19.30;75.90;;;;;;4494645;31;20466;-69
2022/10/24 04:30:06;;;;;;;;;;;19.30;75.10;;;;;;4494645;31;20057;-70
2022/10/24 04:32:32;;;;;;;;;;;19.20;75.00;;;;;;4494665;31;19981;-70
2022/10/24 04:34:57;;;;;;;;;;;19.20;75.00;;;;;;4494592;31;19988;-70
2022/10/24 04:37:23;;;;;;;;;;;19.20;75.90;;;;;;4494575;31;20310;-70
2022/10/24 04:39:49;;;;;;;;;;;19.20;75.00;;;;;;4494713;31;19969;-70
2022/10/24 04:42:14;;;;;;;;;;;19.20;75.00;;;;;;4494640;31;19976;-70
2022/10/24 04:44:40;;;;;;;;;;;19.20;75.00;;;;;;4494436;31;20032;-70
2022/10/24 04:47:06;;;;;;;;;;;19.20;75.00;;;;;;4494643;31;19980;-70
2022/10/24 04:49:32;;;;;;;;;;;19.20;75.00;;;;;;4494384;31;19962;-70
2022/10/24 04:51:57;;;;;;;;;;;19.20;75.00;;;;;;4494661;31;20021;-70
2022/10/24 04:54:23;;;;;;;;;;;19.20;75.00;;;;;;4494344;31;20023;-70
2022/10/24 04:56:49;;;;;;;;;;;19.20;75.00;;;;;;4494014;31;19974;-70
2022/10/24 04:59:14;;;;;;;;;;;19.20;75.00;;;;;;4494520;31;20058;-70
2022/10/24 05:01:40;;;;;;;;;;;19.20;75.00;;;;;;4494397;31;19965;-69
2022/10/24 05:04:07;;;;;;;;;;;19.20;75.00;;;;;;4494415;31;20115;-70
2022/10/24 05:06:33;;;;;;;;;;;19.20;75.00;;;;;;4494374;31;19992;-70
2022/10/24 05:08:58;;;;;;;;;;;19.20;75.00;;;;;;4494100;31;19982;-70
2022/10/24 05:11:24;;;;;;;;;;;19.20;75.00;;;;;;4494035;31;20364;-70
2022/10/24 05:13:50;;;;;;;;;;;19.20;75.00;;;;;;4493691;31;20053;-70
2022/10/24 05:16:15;;;;;;;;;;;19.20;75.00;;;;;;4494071;31;20319;-70
2022/10/24 05:18:41;;;;;;;;;;;19.20;74.90;;;;;;4493927;31;19973;-70
2022/10/24 05:21:07;;;;;;;;;;;19.20;75.00;;;;;;4494110;31;20016;-70
2022/10/24 05:23:33;;;;;;;;;;;19.20;75.00;;;;;;4493529;31;20027;-69
2022/10/24 05:25:58;;;;;;;;;;;19.20;75.00;;;;;;4479617;31;19970;-70
2022/10/24 05:28:24;;;;;;;;;;;19.20;74.90;;;;;;4494030;31;19981;-70
2022/10/24 05:30:50;;;;;;;;;;;19.20;74.90;;;;;;4493450;31;20310;-70
2022/10/24 05:33:15;;;;;;;;;;;19.10;74.90;;;;;;4493685;31;20115;-70
2022/10/24 05:35:41;;;;;;;;;;;19.20;74.90;;;;;;4493606;31;19977;-69
2022/10/24 05:38:08;;;;;;;;;;;19.10;74.80;;;;;;4493584;31;20119;-69
2022/10/24 05:40:33;;;;;;;;;;;19.10;74.90;;;;;;4493547;31;19958;-69
2022/10/24 05:42:59;;;;;;;;;;;19.10;74.80;;;;;;4493361;31;20043;-69
2022/10/24 05:45:25;;;;;;;;;;;19.10;74.80;;;;;;4493531;31;19973;-69
2022/10/24 05:47:51;;;;;;;;;;;19.10;74.90;;;;;;4493409;31;20326;-70
2022/10/24 05:50:16;;;;;;;;;;;19.20;74.90;;;;;;4493516;31;19970;-70
2022/10/24 05:52:42;;;;;;;;;;;19.10;74.80;;;;;;4493393;31;20374;-69
2022/10/24 05:55:08;;;;;;;;;;;19.10;74.80;;;;;;4492763;31;19973;-70
2022/10/24 05:57:34;;;;;;;;;;;19.10;74.80;;;;;;4493335;31;19965;-70
2022/10/24 06:00:00;;;;;;;;;;;19.10;74.80;;;;;;4493009;31;19977;-70
2022/10/24 06:02:26;;;;;;;;;;;19.10;74.80;;;;;;4492979;31;20046;-69
2022/10/24 06:04:54;;;;;;;;;;;19.10;74.90;;;;;;4493403;31;19981;-70
2022/10/24 06:07:20;;;;;;;;;;;19.10;74.80;;;;;;4493187;31;20503;-70
2022/10/24 06:09:46;;;;;;;;;;;19.10;74.80;;;;;;4493083;31;20449;-70
2022/10/24 06:12:11;;;;;;;;;;;19.10;74.80;;;;;;4493001;31;19976;-69
2022/10/24 06:14:39;;;;;;;;;;;19.10;74.80;;;;;;4492872;31;20017;-70
2022/10/24 06:17:07;;;;;;;;;;;19.10;74.80;;;;;;4492804;31;19981;-70
2022/10/24 06:19:34;;;;;;;;;;;19.10;74.80;;;;;;4493017;31;20501;-69
2022/10/24 06:21:59;;;;;;;;;;;19.10;74.70;;;;;;4493016;31;20001;-70
2022/10/24 06:24:25;;;;;;;;;;;19.10;74.80;;;;;;4493266;31;19965;-69
2022/10/24 06:26:51;;;;;;;;;;;19.10;74.70;;;;;;4492893;31;19974;-70
2022/10/24 06:29:16;;;;;;;;;;;19.10;74.70;;;;;;4492635;31;20473;-70
2022/10/24 06:31:42;;;;;;;;;;;19.10;74.70;;;;;;4492871;31;20366;-69
2022/10/24 06:34:08;;;;;;;;;;;19.10;74.70;;;;;;4492806;31;20024;-70
2022/10/24 06:36:35;;;;;;;;;;;19.10;74.70;;;;;;4493058;31;20407;-69
2022/10/24 06:39:01;;;;;;;;;;;19.10;74.70;;;;;;4492585;31;19988;-70
2022/10/24 06:41:27;;;;;;;;;;;19.10;74.70;;;;;;4492515;31;19977;-69
2022/10/24 06:43:55;;;;;;;;;;;19.10;74.70;;;;;;4492832;31;20058;-70
2022/10/24 06:46:22;;;;;;;;;;;19.10;74.70;;;;;;4492988;31;19979;-70
2022/10/24 06:48:48;;;;;;;;;;;19.10;74.70;;;;;;4492719;31;20150;-70
2022/10/24 06:51:14;;;;;;;;;;;19.10;74.70;;;;;;4492699;31;20025;-70
2022/10/24 06:53:40;;;;;;;;;;;19.00;74.70;;;;;;4492705;31;19977;-70
2022/10/24 06:56:06;;;;;;;;;;;19.00;74.60;;;;;;4492720;32;20013;-70
2022/10/24 06:58:33;;;;;;;;;;;19.10;74.70;;;;;;4492653;32;20393;-70
2022/10/24 07:00:59;;;;;;;;;;;19.10;74.70;;;;;;4492679;32;20383;-70
2022/10/24 07:03:24;;;;;;;;;;;19.00;74.60;;;;;;4492554;32;19976;-70
2022/10/24 07:05:51;;;;;;;;;;;19.10;74.70;;;;;;4492723;31;20326;-70
2022/10/24 07:08:16;;;;;;;;;;;19.10;74.70;;;;;;4495625;31;19977;-70
2022/10/24 07:10:42;;;;;;;;;;;19.10;74.70;;;;;;4495862;31;20329;-67
2022/10/24 07:13:08;;;;;;;;;;;19.10;74.60;;;;;;4495436;31;20426;-69
2022/10/24 07:15:33;;;;;;;;;;;19.00;74.60;;;;;;4495568;31;20292;-69
2022/10/24 07:17:59;;;;;;;;;;;19.00;74.60;;;;;;4495641;31;19995;-69
2022/10/24 07:20:25;;;;;;;;;;;19.00;74.20;;;;;;4495657;31;20368;-69
2022/10/24 07:22:50;;;;;;;;;;;19.00;74.00;;;;;;4495458;31;19958;-69
2022/10/24 07:25:16;;;;;;;;;;;19.00;73.80;;;;;;4494962;31;20108;-69
2022/10/24 07:27:42;;;;;;;;;;;19.00;74.30;;;;;;4495284;31;20287;-68
2022/10/24 07:30:08;;;;;;;;;;;19.00;74.50;;;;;;4481291;31;20013;-69
2022/10/24 07:32:34;;;;;;;;;;;19.00;74.50;;;;;;4495645;31;19969;-69
2022/10/24 07:34:59;;;;;;;;;;;19.10;74.70;;;;;;4495507;31;20062;-70
2022/10/24 07:37:25;;;;;;;;;;;19.10;74.70;;;;;;4495594;31;20004;-70
2022/10/24 07:39:51;;;;;;;;;;;19.00;74.70;;;;;;4495418;31;19969;-69
2022/10/24 07:42:17;;;;;;;;;;;19.00;75.00;;;;;;4495397;31;19961;-69
2022/10/24 07:44:43;;;;;;;;;;;19.00;74.90;;;;;;4495309;31;20012;-69
2022/10/24 07:47:10;;;;;;;;;;;19.00;75.10;;;;;;4495295;31;20334;-69
2022/10/24 07:49:37;;;;;;;;;;;19.00;75.00;;;;;;4495275;31;19988;-69
2022/10/24 07:52:03;;;;;;;;;;;19.00;75.00;;;;;;4495190;31;19965;-69
2022/10/24 07:54:28;;;;;;;;;;;19.00;75.10;;;;;;4495024;31;19980;-69
2022/10/24 07:56:54;;;;;;;;;;;19.10;75.00;;;;;;4480760;31;19984;-69
2022/10/24 07:59:20;;;;;;;;;;;19.00;75.00;;;;;;4495194;31;20005;-69
2022/10/24 08:01:45;;;;;;;;;;;19.10;75.10;;;;;;4494932;31;20377;-69
2022/10/24 08:04:12;;;;;;;;;;;19.00;75.10;;;;;;4480550;31;19969;-69
2022/10/24 08:06:41;;;;;;;;;;;19.10;75.00;;;;;;4495015;31;19977;-69
2022/10/24 08:09:07;;;;;;;;;;;19.10;75.10;;;;;;4494919;31;20114;-69
2022/10/24 08:11:33;;;;;;;;;;;19.10;75.00;;;;;;4494917;31;20568;-69
2022/10/24 08:13:58;;;;;;;;;;;19.10;75.00;;;;;;4494641;31;20525;-69
2022/10/24 08:16:25;;;;;;;;;;;19.10;75.10;;;;;;4494897;31;19958;-69
2022/10/24 08:18:51;;;;;;;;;;;19.10;75.00;;;;;;4494120;31;20456;-70
2022/10/24 08:21:18;;;;;;;;;;;19.10;75.00;;;;;;4494841;31;20021;-69
2022/10/24 08:23:45;;;;;;;;;;;19.10;75.00;;;;;;4494531;31;20062;-69
2022/10/24 08:26:12;;;;;;;;;;;19.10;75.00;;;;;;4494641;31;20071;-70
2022/10/24 08:28:38;;;;;;;;;;;19.10;75.10;;;;;;4494444;31;20127;-69
2022/10/24 08:31:06;;;;;;;;;;;19.10;75.00;;;;;;4494802;31;20022;-69
2022/10/24 08:33:32;;;;;;;;;;;19.10;74.90;;;;;;4494763;31;20031;-69
2022/10/24 08:35:59;;;;;;;;;;;19.10;74.90;;;;;;4494549;31;20128;-69
2022/10/24 08:38:25;;;;;;;;;;;19.10;74.90;;;;;;4494524;31;19984;-70
2022/10/24 08:40:51;;;;;;;;;;;19.10;74.80;;;;;;4494154;31;20112;-70
2022/10/24 08:43:17;;;;;;;;;;;19.10;74.90;;;;;;4494248;31;19970;-69
2022/10/24 08:45:52;;;;;;;;;;;19.10;74.80;;;;;;4494384;31;20035;-69
2022/10/24 08:48:20;;;;;;;;;;;19.10;74.80;;;;;;4494363;31;20047;-69
2022/10/24 08:50:49;;;;;;;;;;;19.10;74.70;;;;;;4494028;31;19978;-72
2022/10/24 08:53:18;;;;;;;;;;;19.10;74.70;;;;;;4494474;31;20402;-74
2022/10/24 08:55:48;;;;;;;;;;;19.10;74.70;;;;;;4479910;31;19984;-70
2022/10/24 08:58:15;;;;;;;;;;;19.10;74.70;;;;;;4494014;31;20050;-70
2022/10/24 09:00:42;;;;;;;;;;;19.10;74.70;;;;;;4479758;31;19974;-70
2022/10/24 09:03:17;;;;;;;;;;;19.10;74.60;;;;;;4494429;31;20025;-70
2022/10/24 09:05:45;;;;;;;;;;;19.10;74.60;;;;;;4493899;31;19969;-70
2022/10/24 09:08:32;;;;;;;;;;;19.20;74.70;;;;;;4494189;31;19973;-70
2022/10/24 09:10:59;;;;;;;;;;;19.10;74.70;;;;;;4493433;31;20029;-70
2022/10/24 09:13:26;;;;;;;;;;;19.20;74.70;;;;;;4493929;31;20024;-70
2022/10/24 09:15:52;;;;;;;;;;;19.20;74.80;;;;;;4493707;31;19984;-70
2022/10/24 09:18:18;;;;;;;;;;;19.20;74.70;;;;;;4493927;31;20476;-70
2022/10/24 09:20:44;;;;;;;;;;;19.20;74.80;;;;;;4493896;31;20019;-70
2022/10/24 09:23:10;;;;;;;;;;;19.20;74.70;;;;;;4493559;31;20047;-70
2022/10/24 09:25:37;;;;;;;;;;;19.20;74.70;;;;;;4493592;31;19970;-69
2022/10/24 09:28:04;;;;;;;;;;;19.20;74.70;;;;;;4493759;31;19977;-71
2022/10/24 09:30:30;;;;;;;;;;;19.20;74.70;;;;;;4492534;31;19973;-70
2022/10/24 09:32:57;;;;;;;;;;;19.20;74.60;;;;;;4493651;31;20315;-70
2022/10/24 09:35:25;;;;;;;;;;;19.30;74.60;;;;;;4493442;31;19981;-70
2022/10/24 09:37:54;;;;;;;;;;;19.30;74.60;;;;;;4493613;31;20492;-69
2022/10/24 09:40:19;;;;;;;;;;;19.20;74.50;;;;;;4493538;31;20032;-70
2022/10/24 09:42:49;;;;;;;;;;;19.30;74.50;;;;;;4493346;31;20104;-70
2022/10/24 09:45:24;;;;;;;;;;;19.20;74.50;;;;;;4493550;31;19988;-70
2022/10/24 09:47:54;;;;;;;;;;;19.30;74.50;;;;;;4493317;31;20046;-70
2022/10/24 09:50:20;;;;;;;;;;;19.20;74.40;;;;;;4493152;31;20070;-70
2022/10/24 09:52:49;;;;;;;;;;;19.20;74.50;;;;;;4493474;31;20095;-70
2022/10/24 09:55:20;;;;;;;;;;;19.20;74.50;;;;;;4493341;31;20342;-70
2022/10/24 09:57:45;;;;;;;;;;;19.20;74.40;;;;;;4493303;31;20402;-70
2022/10/24 10:00:31;;;;;;;;;;;19.20;74.40;;;;;;4493316;31;20066;-70
2022/10/24 10:03:00;;;;;;;;;;;19.20;74.40;;;;;;4493280;31;19981;-71
2022/10/24 10:05:26;;;;;;;;;;;19.20;74.50;;;;;;4466417;31;20387;-70
2022/10/24 10:07:52;;;;;;;;;;;19.20;74.50;;;;;;4493409;31;19978;-71
2022/10/24 10:10:18;;;;;;;;;;;19.20;74.60;;;;;;4493074;31;20021;-70
2022/10/24 10:12:46;;;;;;;;;;;19.20;74.50;;;;;;4493192;31;19962;-70
2022/10/24 10:15:31;;;;;;;;;;;19.20;74.60;;;;;;4492822;31;19977;-70
2022/10/24 10:17:59;;;;;;;;;;;19.20;74.50;;;;;;4492991;31;19977;-70
2022/10/24 10:20:38;;;;;;;;;;;19.20;74.50;;;;;;4492993;31;20103;-70
2022/10/24 10:23:24;;;;;;;;;;;19.20;74.50;;;;;;4492840;31;20505;-70
2022/10/24 10:26:08;;;;;;;;;;;19.30;74.50;;;;;;4492742;31;20012;-70
2022/10/24 10:28:40;;;;;;;;;;;19.20;74.50;;;;;;4492896;31;20107;-71
2022/10/24 10:31:07;;;;;;;;;;;19.20;74.40;;;;;;4492974;31;19984;-70
2022/10/24 10:33:38;;;;;;;;;;;19.20;74.30;;;;;;4492917;31;20299;-71
2022/10/24 10:36:08;;;;;;;;;;;19.20;74.30;;;;;;4493160;31;19981;-71
2022/10/24 10:38:49;;;;;;;;;;;19.20;74.20;;;;;;4478929;31;19973;-70
2022/10/24 10:41:24;;;;;;;;;;;19.20;74.30;;;;;;4492520;31;20003;-70
2022/10/24 10:43:50;;;;;;;;;;;19.20;74.40;;;;;;4492728;31;19977;-70
2022/10/24 10:46:22;;;;;;;;;;;19.20;74.40;;;;;;4492370;31;20287;-68
2022/10/24 10:49:01;;;;;;;;;;;19.20;74.40;;;;;;4492672;31;19985;-70
2022/10/24 10:51:34;;;;;;;;;;;19.20;74.40;;;;;;4492728;31;20326;-70
2022/10/24 10:54:05;;;;;;;;;;;19.20;74.50;;;;;;4493009;31;20429;-70
2022/10/24 10:56:50;;;;;;;;;;;19.20;74.50;;;;;;4492947;31;19985;-70
2022/10/24 10:59:31;;;;;;;;;;;19.30;74.50;;;;;;4492677;32;20002;-70
2022/10/24 11:01:56;;;;;;;;;;;19.30;74.50;;;;;;4478538;32;19989;-70
2022/10/24 11:04:48;;;;;;;;;;;19.20;74.50;;;;;;4492570;32;20460;-69
2022/10/24 11:07:20;;;;;;;;;;;19.20;74.50;;;;;;4473768;32;20004;-69
2022/10/24 11:09:50;;;;;;;;;;;19.30;74.50;;;;;;4492530;32;20391;-70
2022/10/24 11:12:23;;;;;;;;;;;19.20;74.50;;;;;;4492647;32;19988;-68
2022/10/24 11:14:59;;;;;;;;;;;19.20;74.50;;;;;;4492511;32;19978;-69
2022/10/24 11:17:28;;;;;;;;;;;19.20;74.40;;;;;;4492546;32;20054;-70
2022/10/24 11:20:00;;;;;;;;;;;19.20;74.40;;;;;;4492621;32;19973;-70
2022/10/24 11:22:28;;;;;;;;;;;19.30;74.40;;;;;;4478188;32;20091;-70
2022/10/24 11:24:56;;;;;;;;;;;19.20;74.40;;;;;;4492414;32;19977;-71
2022/10/24 11:27:31;;;;;;;;;;;19.20;74.30;;;;;;4492367;32;19981;-71
2022/10/24 11:30:14;;;;;;;;;;;19.30;74.50;;;;;;4492436;32;19987;-71
2022/10/24 11:32:45;;;;;;;;;;;19.30;74.50;;;;;;4478178;32;20044;-70
2022/10/24 11:35:27;;;;;;;;;;;19.30;74.70;;;;;;4492401;32;20509;-70
2022/10/24 11:37:57;;;;;;;;;;;19.30;74.70;;;;;;4492039;32;19965;-69
2022/10/24 11:40:25;;;;;;;;;;;19.30;74.70;;;;;;4492047;32;20051;-69
2022/10/24 11:42:56;;;;;;;;;;;19.30;74.70;;;;;;4491886;32;19969;-70
2022/10/24 11:45:27;;;;;;;;;;;19.30;74.70;;;;;;4492295;32;20095;-70
2022/10/24 11:47:53;;;;;;;;;;;19.30;74.70;;;;;;4492053;32;19974;-69
2022/10/24 11:50:18;;;;;;;;;;;19.30;74.70;;;;;;4492205;32;20067;-69
2022/10/24 11:52:47;;;;;;;;;;;19.30;74.80;;;;;;4492183;31;19961;-68
2022/10/24 11:55:36;;;;;;;;;;;19.30;74.70;;;;;;4495104;31;19985;-68
2022/10/24 11:58:06;;;;;;;;;;;19.30;74.70;;;;;;4495362;31;20310;-68
2022/10/24 12:00:39;;;;;;;;;;;19.30;74.50;;;;;;4481542;31;20326;-68
2022/10/24 12:03:15;;;;;;;;;;;19.30;74.50;;;;;;4495088;31;19969;-68
2022/10/24 12:05:49;;;;;;;;;;;19.30;74.40;;;;;;4495306;31;19983;-68
2022/10/24 12:08:20;;;;;;;;;;;19.30;74.40;;;;;;4494981;31;19980;-68
2022/10/24 12:11:06;;;;;;;;;;;19.30;74.40;;;;;;4495237;31;19996;-68
2022/10/24 12:13:48;;;;;;;;;;;19.30;74.40;;;;;;4494486;31;19977;-68
2022/10/24 12:16:23;;;;;;;;;;;19.30;74.40;;;;;;4494768;31;19985;-68
2022/10/24 12:18:57;;;;;;;;;;;19.30;74.40;;;;;;4480743;31;20013;-69
2022/10/24 12:21:25;;;;;;;;;;;19.30;74.40;;;;;;4494753;31;20017;-68
2022/10/24 12:23:57;;;;;;;;;;;19.30;74.40;;;;;;4494659;31;20464;-68
2022/10/24 12:26:31;;;;;;;;;;;19.30;74.40;;;;;;4494947;31;19973;-68
2022/10/24 12:28:58;;;;;;;;;;;19.30;74.50;;;;;;4494864;31;20008;-69
2022/10/24 12:31:34;;;;;;;;;;;19.30;74.30;;;;;;4494361;31;19969;-68
2022/10/24 12:34:15;;;;;;;;;;;19.30;74.40;;;;;;4494722;31;19989;-68
2022/10/24 12:36:59;;;;;;;;;;;19.30;74.50;;;;;;4494542;31;19983;-68
2022/10/24 12:39:32;;;;;;;;;;;19.30;74.40;;;;;;4494787;31;19981;-68
2022/10/24 12:41:58;;;;;;;;;;;19.30;74.40;;;;;;4494258;31;19974;-69
2022/10/24 12:44:24;;;;;;;;;;;19.30;74.40;;;;;;4479850;31;19969;-69
2022/10/24 12:46:49;;;;;;;;;;;19.30;74.40;;;;;;4494423;31;19977;-68
2022/10/24 12:49:17;;;;;;;;;;;19.30;74.40;;;;;;4494370;31;19966;-69
2022/10/24 12:51:43;;;;;;;;;;;19.30;74.60;;;;;;4494269;31;20103;-68
2022/10/24 12:54:12;;;;;;;;;;;19.30;74.60;;;;;;4494053;31;20074;-68
2022/10/24 12:56:50;;;;;;;;;;;19.30;74.60;;;;;;4494275;31;20024;-68
2022/10/24 12:59:18;;;;;;;;;;;19.30;74.70;;;;;;4493955;31;20031;-68
2022/10/24 13:01:45;;;;;;;;;;;19.30;74.60;;;;;;4494214;31;20477;-68
2022/10/24 13:04:10;;;;;;;;;;;19.30;74.70;;;;;;4494119;31;20379;-69
2022/10/24 13:06:52;;;;;;;;;;;19.30;74.70;;;;;;4494321;31;20023;-68
2022/10/24 13:09:41;;;;;;;;;;;19.30;74.90;;;;;;4494446;31;19981;-68
2022/10/24 13:12:07;;;;;;;;;;;19.30;75.00;;;;;;4487345;31;19985;-68
2022/10/24 13:14:51;;;;;;;;;;;19.30;74.90;;;;;;4493699;31;19981;-68
2022/10/24 13:17:20;;;;;;;;;;;19.30;74.90;;;;;;4493662;31;19977;-68
2022/10/24 13:19:45;;;;;;;;;;;19.30;75.00;;;;;;4493923;31;19988;-68
2022/10/24 13:22:28;;;;;;;;;;;19.30;75.00;;;;;;4493842;31;19981;-68
2022/10/24 13:24:54;;;;;;;;;;;19.30;75.00;;;;;;4493866;31;20392;-68
2022/10/24 13:27:27;;;;;;;;;;;19.30;75.00;;;;;;4493897;31;19985;-69
2022/10/24 13:29:56;;;;;;;;;;;19.30;75.10;;;;;;4493741;31;20133;-68
2022/10/24 13:32:22;;;;;;;;;;;19.30;75.00;;;;;;4493637;31;19985;-68
2022/10/24 13:34:47;;;;;;;;;;;19.30;75.10;;;;;;4493631;31;19973;-68
2022/10/24 13:37:18;;;;;;;;;;;19.30;75.00;;;;;;4493921;31;19966;-68
2022/10/24 13:39:50;;;;;;;;;;;19.20;75.10;;;;;;4493643;31;20050;-68
2022/10/24 13:42:32;;;;;;;;;;;19.30;75.10;;;;;;4493659;31;19977;-69
2022/10/24 13:45:01;;;;;;;;;;;19.30;75.10;;;;;;4493465;31;19981;-68
2022/10/24 13:47:27;;;;;;;;;;;19.20;75.10;;;;;;4493671;31;20054;-68
2022/10/24 13:49:56;;;;;;;;;;;19.20;75.10;;;;;;4493323;31;19973;-69
2022/10/24 13:52:27;;;;;;;;;;;19.30;75.00;;;;;;4493382;31;19984;-68
2022/10/24 13:55:20;;;;;;;;;;;19.30;75.10;;;;;;4493312;31;19988;-69
2022/10/24 13:57:55;;;;;;;;;;;19.20;75.90;;;;;;4474804;31;19978;-68
2022/10/24 14:00:40;;;;;;;;;;;19.20;75.10;;;;;;4493228;31;19984;-69
2022/10/24 14:03:12;;;;;;;;;;;19.20;75.20;;;;;;4493309;31;19977;-69
2022/10/24 14:05:40;;;;;;;;;;;19.30;75.20;;;;;;4493203;31;19984;-68
2022/10/24 14:08:06;;;;;;;;;;;19.20;75.10;;;;;;4493053;31;19969;-69
2022/10/24 14:10:32;;;;;;;;;;;19.20;75.20;;;;;;4492901;31;19984;-68
2022/10/24 14:12:58;;;;;;;;;;;19.30;75.20;;;;;;4493252;31;19973;-69
2022/10/24 14:15:27;;;;;;;;;;;19.20;75.20;;;;;;4492756;31;19989;-69
2022/10/24 14:17:59;;;;;;;;;;;19.20;75.30;;;;;;4493018;31;19986;-68
2022/10/24 14:20:26;;;;;;;;;;;19.20;75.30;;;;;;4493005;31;20410;-68
2022/10/24 14:22:52;;;;;;;;;;;19.20;75.30;;;;;;4492910;31;20029;-69
2022/10/24 14:25:35;;;;;;;;;;;19.20;75.20;;;;;;4478828;31;20103;-68